Time;durP1;ratioP1;P1;durP2;ratioP2;P2;SDS_P1;SDS_P2;PMS_P1;PMS_P2;Temp;Humidity;BMP_temperature;BMP_pressure;BME280_temperature;BME280_humidity;BME280_pressure;Samples;Min_cycle;Max_cycle;Signal;HPM_P1;HPM_P2
2021/01/26 00:00:29;;;;;;;;;;;0.90;99.90;;;;;;5046717;28;19974;-70
2021/01/26 00:02:54;;;;;;;;;;;0.90;99.90;;;;;;5045019;28;19917;-68
2021/01/26 00:05:20;;;;;;;;;;;0.90;99.90;;;;;;5039761;28;20343;-69
2021/01/26 00:07:45;;;;;;;;;;;0.80;99.90;;;;;;5040284;28;19913;-68
2021/01/26 00:10:11;;;;;;;;;;;0.80;99.90;;;;;;5046280;28;20251;-70
2021/01/26 00:12:37;;;;;;;;;;;0.90;99.90;;;;;;5048958;28;19917;-69
2021/01/26 00:15:04;;;;;;;;;;;0.90;99.90;;;;;;5048449;28;19913;-68
2021/01/26 00:17:30;;;;;;;;;;;0.90;99.90;;;;;;5048993;28;19920;-68
2021/01/26 00:19:55;;;;;;;;;;;1.00;99.90;;;;;;5048313;28;19909;-70
2021/01/26 00:22:20;;;;;;;;;;;1.10;99.90;;;;;;5049252;28;19952;-70
2021/01/26 00:24:46;;;;;;;;;;;1.10;99.90;;;;;;5047793;28;19912;-69
2021/01/26 00:27:11;;;;;;;;;;;1.20;99.90;;;;;;5048104;28;19909;-68
2021/01/26 00:29:37;;;;;;;;;;;1.20;99.90;;;;;;5049803;28;19912;-69
2021/01/26 00:32:02;;;;;;;;;;;1.20;99.90;;;;;;5050192;28;20007;-69
2021/01/26 00:34:28;;;;;;;;;;;1.30;99.90;;;;;;5050408;28;20059;-67
2021/01/26 00:36:53;;;;;;;;;;;1.30;99.90;;;;;;5049565;28;19909;-69
2021/01/26 00:39:19;;;;;;;;;;;1.40;99.90;;;;;;5049225;28;19917;-69
2021/01/26 00:41:44;;;;;;;;;;;1.40;99.90;;;;;;5049136;28;19909;-69
2021/01/26 00:44:10;;;;;;;;;;;1.40;99.90;;;;;;5048479;28;20027;-69
2021/01/26 00:46:35;;;;;;;;;;;1.40;99.90;;;;;;5049159;28;19951;-68
2021/01/26 00:49:01;;;;;;;;;;;1.50;99.90;;;;;;5049675;28;19919;-69
2021/01/26 00:51:26;;;;;;;;;;;1.50;99.90;;;;;;5050509;28;19917;-67
2021/01/26 00:53:52;;;;;;;;;;;1.50;99.90;;;;;;5049196;28;20381;-69
2021/01/26 00:56:17;;;;;;;;;;;1.50;99.90;;;;;;5049019;28;19909;-69
2021/01/26 00:58:43;;;;;;;;;;;1.50;99.90;;;;;;5048163;28;20303;-68
2021/01/26 01:01:08;;;;;;;;;;;1.40;99.90;;;;;;5048150;28;19913;-68
2021/01/26 01:03:34;;;;;;;;;;;1.40;99.90;;;;;;5048506;28;19928;-69
2021/01/26 01:05:59;;;;;;;;;;;1.50;99.90;;;;;;5049769;28;19959;-66
2021/01/26 01:08:25;;;;;;;;;;;1.40;99.90;;;;;;5047673;28;19912;-69
2021/01/26 01:10:52;;;;;;;;;;;1.40;99.90;;;;;;5048453;28;20596;-67
2021/01/26 01:13:18;;;;;;;;;;;1.40;99.90;;;;;;5048590;28;19916;-69
2021/01/26 01:15:43;;;;;;;;;;;1.30;99.90;;;;;;5047695;28;20374;-68
2021/01/26 01:18:09;;;;;;;;;;;1.40;99.90;;;;;;5048582;28;19913;-67
2021/01/26 01:20:35;;;;;;;;;;;1.30;99.90;;;;;;5047829;28;19939;-69
2021/01/26 01:23:00;;;;;;;;;;;1.30;99.90;;;;;;5048170;28;19912;-70
2021/01/26 01:25:26;;;;;;;;;;;1.20;99.90;;;;;;5048673;28;20258;-69
2021/01/26 01:27:51;;;;;;;;;;;1.00;99.90;;;;;;5048064;28;19916;-70
2021/01/26 01:30:19;;;;;;;;;;;0.90;99.90;;;;;;5049705;28;20467;-67
2021/01/26 01:32:45;;;;;;;;;;;0.80;99.90;;;;;;5049530;28;20285;-69
2021/01/26 01:35:11;;;;;;;;;;;0.60;99.90;;;;;;5049932;28;19920;-69
2021/01/26 01:37:36;;;;;;;;;;;0.40;99.90;;;;;;5049758;28;20323;-69
2021/01/26 01:40:03;;;;;;;;;;;0.30;99.90;;;;;;5050072;28;19913;-70
2021/01/26 01:42:29;;;;;;;;;;;0.30;99.90;;;;;;5049457;28;20352;-67
2021/01/26 01:44:54;;;;;;;;;;;0.30;99.90;;;;;;5049628;28;19948;-68
2021/01/26 01:47:49;;;;;;;;;;;0.20;99.90;;;;;;5048651;28;19932;-69
2021/01/26 01:50:20;;;;;;;;;;;0.20;99.90;;;;;;5036712;28;20341;-68
2021/01/26 01:52:48;;;;;;;;;;;0.20;99.90;;;;;;5050047;28;19928;-68
2021/01/26 01:55:20;;;;;;;;;;;0.10;99.90;;;;;;5049837;28;19917;-68
2021/01/26 01:57:56;;;;;;;;;;;0.10;99.90;;;;;;5048619;28;19964;-68
2021/01/26 02:00:22;;;;;;;;;;;0.00;99.90;;;;;;5048723;28;19959;-67
2021/01/26 02:03:13;;;;;;;;;;;0.00;99.90;;;;;;5048167;28;19908;-69
2021/01/26 02:05:40;;;;;;;;;;;0.00;99.90;;;;;;5025095;28;19909;-71
2021/01/26 02:08:11;;;;;;;;;;;-0.10;99.90;;;;;;5048800;28;19966;-69
2021/01/26 02:10:36;;;;;;;;;;;-0.10;99.90;;;;;;5049072;28;19913;-69
2021/01/26 02:13:02;;;;;;;;;;;-0.10;99.90;;;;;;5049101;28;19982;-71
2021/01/26 02:15:27;;;;;;;;;;;0.00;99.90;;;;;;5048248;28;20208;-68
2021/01/26 02:17:53;;;;;;;;;;;0.00;99.90;;;;;;5048037;28;19917;-70
2021/01/26 02:20:21;;;;;;;;;;;0.10;99.90;;;;;;5049597;28;19978;-70
2021/01/26 02:23:05;;;;;;;;;;;0.10;99.90;;;;;;5051713;28;19927;-69
2021/01/26 02:25:49;;;;;;;;;;;0.20;99.90;;;;;;5051156;28;19999;-70
2021/01/26 02:28:23;;;;;;;;;;;0.20;99.90;;;;;;5050832;28;19966;-69
2021/01/26 02:30:56;;;;;;;;;;;0.30;99.90;;;;;;5051066;28;19913;-69
2021/01/26 02:33:42;;;;;;;;;;;0.30;99.90;;;;;;5051859;28;19909;-69
2021/01/26 02:36:13;;;;;;;;;;;0.30;99.90;;;;;;5051843;28;19962;-70
2021/01/26 02:38:38;;;;;;;;;;;0.30;99.90;;;;;;5050762;28;19975;-69
2021/01/26 02:41:23;;;;;;;;;;;0.30;99.90;;;;;;5050728;28;19952;-70
2021/01/26 02:44:06;;;;;;;;;;;0.30;99.90;;;;;;5050128;28;19939;-67
2021/01/26 02:46:43;;;;;;;;;;;0.30;99.90;;;;;;5050214;28;20358;-68
2021/01/26 02:49:16;;;;;;;;;;;0.30;99.90;;;;;;5051220;28;19908;-70
2021/01/26 02:51:48;;;;;;;;;;;0.30;99.90;;;;;;5051315;28;19908;-70
2021/01/26 02:54:13;;;;;;;;;;;0.20;99.90;;;;;;5051237;28;19919;-69
2021/01/26 02:56:46;;;;;;;;;;;0.20;99.90;;;;;;5050615;28;19909;-68
2021/01/26 02:59:14;;;;;;;;;;;0.20;99.90;;;;;;5050777;28;19999;-69
2021/01/26 03:01:44;;;;;;;;;;;0.20;99.90;;;;;;5050715;28;20007;-68
2021/01/26 03:04:13;;;;;;;;;;;0.20;99.90;;;;;;5050878;28;19909;-68
2021/01/26 03:06:42;;;;;;;;;;;0.20;99.90;;;;;;5050477;28;19935;-67
2021/01/26 03:09:09;;;;;;;;;;;0.10;99.90;;;;;;5050565;28;19908;-68
2021/01/26 03:11:51;;;;;;;;;;;0.00;99.90;;;;;;5051275;28;19916;-69
2021/01/26 03:14:19;;;;;;;;;;;-0.10;99.90;;;;;;5050063;28;19920;-68
2021/01/26 03:16:47;;;;;;;;;;;-0.10;99.90;;;;;;5049696;28;19923;-69
2021/01/26 03:19:18;;;;;;;;;;;-0.10;99.90;;;;;;5050969;28;19942;-69
2021/01/26 03:21:47;;;;;;;;;;;-0.10;99.90;;;;;;5050648;28;19974;-68
2021/01/26 03:24:14;;;;;;;;;;;-0.10;99.90;;;;;;5049950;28;19924;-68
2021/01/26 03:26:40;;;;;;;;;;;-0.10;99.90;;;;;;5049787;28;19909;-69
2021/01/26 03:29:07;;;;;;;;;;;-0.20;99.90;;;;;;5049271;28;19919;-68
2021/01/26 03:31:43;;;;;;;;;;;-0.10;99.90;;;;;;5065191;28;19982;-69
2021/01/26 03:34:08;;;;;;;;;;;-0.10;99.90;;;;;;5050578;28;20275;-69
2021/01/26 03:36:34;;;;;;;;;;;-0.10;99.90;;;;;;5049742;28;19909;-68
2021/01/26 03:39:00;;;;;;;;;;;-0.10;99.90;;;;;;5049942;28;19967;-67
2021/01/26 03:41:26;;;;;;;;;;;-0.10;99.90;;;;;;5050473;28;20281;-69
2021/01/26 03:43:52;;;;;;;;;;;-0.10;99.90;;;;;;5049492;28;19909;-68
2021/01/26 03:46:36;;;;;;;;;;;-0.10;99.90;;;;;;5048807;28;19954;-68
2021/01/26 03:49:20;;;;;;;;;;;-0.10;99.90;;;;;;5048902;28;19998;-68
2021/01/26 03:51:48;;;;;;;;;;;-0.20;99.90;;;;;;5050492;28;20350;-68
2021/01/26 03:54:16;;;;;;;;;;;-0.20;99.90;;;;;;5049801;28;19909;-69
2021/01/26 03:56:48;;;;;;;;;;;-0.20;99.90;;;;;;5049192;28;19909;-68
2021/01/26 03:59:23;;;;;;;;;;;-0.20;99.90;;;;;;5049308;28;20554;-68
2021/01/26 04:01:48;;;;;;;;;;;-0.20;99.90;;;;;;5049883;28;19908;-68
2021/01/26 04:04:33;;;;;;;;;;;-0.30;99.90;;;;;;5049824;28;20054;-68
2021/01/26 04:06:59;;;;;;;;;;;-0.40;99.90;;;;;;5049083;28;19913;-68
2021/01/26 04:09:26;;;;;;;;;;;-0.40;99.90;;;;;;5049209;28;19931;-67
2021/01/26 04:11:52;;;;;;;;;;;-0.50;99.90;;;;;;5050357;28;19919;-67
2021/01/26 04:14:27;;;;;;;;;;;-0.50;99.90;;;;;;5048983;28;19991;-68
2021/01/26 04:16:56;;;;;;;;;;;-0.50;99.90;;;;;;5048757;28;19962;-68
2021/01/26 04:19:24;;;;;;;;;;;-0.50;99.90;;;;;;5049425;28;20007;-68
2021/01/26 04:21:49;;;;;;;;;;;-0.50;99.90;;;;;;5049477;28;19909;-68
2021/01/26 04:24:15;;;;;;;;;;;-0.50;99.90;;;;;;5049135;28;20450;-70
2021/01/26 04:26:41;;;;;;;;;;;-0.50;99.90;;;;;;5048756;28;19908;-69
2021/01/26 04:29:07;;;;;;;;;;;-0.60;99.90;;;;;;5047789;28;19913;-69
2021/01/26 04:31:32;;;;;;;;;;;-0.60;99.90;;;;;;5049469;28;20003;-70
2021/01/26 04:33:58;;;;;;;;;;;-0.70;99.90;;;;;;5049154;28;19917;-69
2021/01/26 04:36:24;;;;;;;;;;;-0.70;99.90;;;;;;5049563;28;19971;-68
2021/01/26 04:38:50;;;;;;;;;;;-0.80;99.90;;;;;;5048503;28;19991;-70
2021/01/26 04:41:29;;;;;;;;;;;-0.80;99.90;;;;;;5049431;28;19999;-70
2021/01/26 04:44:04;;;;;;;;;;;-0.90;99.90;;;;;;5047499;28;20308;-69
2021/01/26 04:46:31;;;;;;;;;;;-0.90;99.90;;;;;;5048447;28;19908;-70
2021/01/26 04:49:03;;;;;;;;;;;-1.00;99.90;;;;;;5048482;28;19914;-69
2021/01/26 04:51:42;;;;;;;;;;;-1.00;99.90;;;;;;5049290;28;20277;-70
2021/01/26 04:54:08;;;;;;;;;;;-1.10;99.90;;;;;;5048576;28;20001;-70
2021/01/26 04:56:33;;;;;;;;;;;-1.00;99.90;;;;;;5048515;28;19955;-68
2021/01/26 04:59:17;;;;;;;;;;;-1.10;99.90;;;;;;5048020;28;19988;-70
2021/01/26 05:01:49;;;;;;;;;;;-1.10;99.90;;;;;;5048777;28;20396;-69
2021/01/26 05:04:21;;;;;;;;;;;-1.10;99.90;;;;;;5048690;28;19913;-68
2021/01/26 05:06:49;;;;;;;;;;;-1.20;99.90;;;;;;5048011;28;19913;-69
2021/01/26 05:09:16;;;;;;;;;;;-1.30;99.90;;;;;;5048095;28;20428;-69
2021/01/26 05:11:43;;;;;;;;;;;-1.30;99.90;;;;;;5049109;28;19919;-69
2021/01/26 05:14:23;;;;;;;;;;;-1.30;99.90;;;;;;5048135;28;19939;-69
2021/01/26 05:16:54;;;;;;;;;;;-1.30;99.90;;;;;;5047585;28;19909;-68
2021/01/26 05:19:23;;;;;;;;;;;-1.40;99.90;;;;;;5048523;28;19924;-69
2021/01/26 05:22:09;;;;;;;;;;;-1.40;99.90;;;;;;5049085;28;19995;-70
2021/01/26 05:24:41;;;;;;;;;;;-1.40;99.90;;;;;;5047788;28;20045;-69
2021/01/26 05:27:07;;;;;;;;;;;-1.40;99.90;;;;;;5048225;28;20007;-68
2021/01/26 05:29:34;;;;;;;;;;;-1.40;99.90;;;;;;5047017;28;20057;-68
2021/01/26 05:32:01;;;;;;;;;;;-1.40;99.90;;;;;;5048355;28;19908;-69
2021/01/26 05:34:28;;;;;;;;;;;-1.40;99.90;;;;;;5048332;28;19917;-69
2021/01/26 05:36:54;;;;;;;;;;;-1.40;99.90;;;;;;5048055;28;20618;-69
2021/01/26 05:39:27;;;;;;;;;;;-1.40;99.90;;;;;;5048280;28;19978;-70
2021/01/26 05:41:52;;;;;;;;;;;-1.40;99.90;;;;;;5048750;28;19920;-68
2021/01/26 05:44:18;;;;;;;;;;;-1.40;99.90;;;;;;5047378;28;20305;-69
2021/01/26 05:46:44;;;;;;;;;;;-1.30;99.90;;;;;;5047299;28;19913;-70
2021/01/26 05:49:10;;;;;;;;;;;-1.20;99.90;;;;;;5047674;28;20003;-69
2021/01/26 05:51:38;;;;;;;;;;;-1.10;99.90;;;;;;5048302;28;19996;-69
2021/01/26 05:54:30;;;;;;;;;;;-1.10;99.90;;;;;;5049190;28;20003;-70
2021/01/26 05:56:56;;;;;;;;;;;-1.10;99.90;;;;;;5048502;28;20003;-69
2021/01/26 05:59:27;;;;;;;;;;;-1.00;99.90;;;;;;5051688;28;20323;-70
2021/01/26 06:01:53;;;;;;;;;;;-1.00;99.90;;;;;;5052435;28;19913;-70
2021/01/26 06:04:24;;;;;;;;;;;-1.00;99.90;;;;;;5052296;28;19963;-69
2021/01/26 06:06:49;;;;;;;;;;;-0.90;99.90;;;;;;5051234;28;20372;-70
2021/01/26 06:09:27;;;;;;;;;;;-0.80;99.90;;;;;;5051285;28;19913;-69
2021/01/26 06:12:06;;;;;;;;;;;-0.70;99.90;;;;;;5052349;28;20016;-67
2021/01/26 06:14:32;;;;;;;;;;;-0.70;99.90;;;;;;5051200;28;19928;-69
2021/01/26 06:17:16;;;;;;;;;;;-0.60;99.90;;;;;;5050837;28;20016;-68
2021/01/26 06:19:42;;;;;;;;;;;-0.60;99.90;;;;;;5052072;28;19962;-69
2021/01/26 06:22:07;;;;;;;;;;;-0.50;99.90;;;;;;5052137;28;19928;-69
2021/01/26 06:24:34;;;;;;;;;;;-0.50;99.90;;;;;;5050959;28;19912;-70
2021/01/26 06:27:05;;;;;;;;;;;-0.50;99.90;;;;;;5050703;28;19939;-71
2021/01/26 06:29:36;;;;;;;;;;;-0.50;99.90;;;;;;5046423;28;19913;-69
2021/01/26 06:32:13;;;;;;;;;;;-0.50;99.90;;;;;;5033908;28;19982;-69
2021/01/26 06:34:53;;;;;;;;;;;-0.50;99.90;;;;;;5051281;28;19928;-69
2021/01/26 06:37:19;;;;;;;;;;;-0.60;99.90;;;;;;5047535;28;19916;-70
2021/01/26 06:39:44;;;;;;;;;;;-0.60;99.90;;;;;;5051410;28;19913;-68
2021/01/26 06:42:12;;;;;;;;;;;-0.50;99.90;;;;;;5045014;28;19915;-69
2021/01/26 06:44:38;;;;;;;;;;;-0.50;99.90;;;;;;5030672;28;19913;-68
2021/01/26 06:47:22;;;;;;;;;;;-0.50;99.90;;;;;;5030053;28;20254;-68
2021/01/26 06:49:58;;;;;;;;;;;-0.50;99.90;;;;;;5031009;28;19999;-68
2021/01/26 06:52:43;;;;;;;;;;;-0.50;99.90;;;;;;5031316;28;20404;-70
2021/01/26 06:55:10;;;;;;;;;;;-0.50;99.90;;;;;;5044679;28;19993;-68
2021/01/26 06:57:39;;;;;;;;;;;-0.50;99.90;;;;;;5050001;28;19917;-69
2021/01/26 07:00:23;;;;;;;;;;;-0.50;99.90;;;;;;5050872;28;19909;-70
2021/01/26 07:03:07;;;;;;;;;;;-0.40;99.90;;;;;;5050206;28;19908;-67
2021/01/26 07:05:51;;;;;;;;;;;-0.40;99.90;;;;;;5049886;28;20421;-69
2021/01/26 07:08:22;;;;;;;;;;;-0.40;99.90;;;;;;5050534;28;19913;-69
2021/01/26 07:11:00;;;;;;;;;;;-0.30;99.90;;;;;;5044856;28;19960;-70
2021/01/26 07:13:37;;;;;;;;;;;-0.30;99.90;;;;;;5038251;28;19948;-71
2021/01/26 07:16:15;;;;;;;;;;;-0.30;99.90;;;;;;5049233;28;19916;-69
2021/01/26 07:18:53;;;;;;;;;;;-0.20;99.90;;;;;;5045259;28;19916;-69
2021/01/26 07:21:36;;;;;;;;;;;-0.20;99.90;;;;;;5050338;28;20369;-70
2021/01/26 07:24:11;;;;;;;;;;;-0.20;99.90;;;;;;5046865;28;19920;-69
2021/01/26 07:26:39;;;;;;;;;;;-0.20;99.90;;;;;;5048967;28;19917;-69
2021/01/26 07:29:10;;;;;;;;;;;-0.10;99.90;;;;;;5048353;28;20561;-70
2021/01/26 07:31:38;;;;;;;;;;;-0.10;99.90;;;;;;5039934;28;19913;-69
2021/01/26 07:34:08;;;;;;;;;;;-0.10;99.90;;;;;;5046589;28;19913;-70
2021/01/26 07:36:35;;;;;;;;;;;0.00;99.90;;;;;;5040701;28;19913;-69
2021/01/26 07:39:20;;;;;;;;;;;0.00;99.90;;;;;;5043507;28;20446;-70
2021/01/26 07:41:51;;;;;;;;;;;0.10;99.90;;;;;;5046434;28;20012;-74
2021/01/26 07:44:33;;;;;;;;;;;0.10;99.90;;;;;;5047875;28;19913;-70
2021/01/26 07:47:08;;;;;;;;;;;0.20;99.90;;;;;;5043028;28;20039;-69
2021/01/26 07:49:36;;;;;;;;;;;0.30;99.90;;;;;;5048984;28;19998;-71
2021/01/26 07:52:03;;;;;;;;;;;0.30;99.90;;;;;;5049683;28;19916;-69
2021/01/26 07:54:34;;;;;;;;;;;0.30;99.90;;;;;;5049159;28;20351;-70
2021/01/26 07:57:01;;;;;;;;;;;0.30;99.90;;;;;;5051418;28;19936;-69
2021/01/26 07:59:35;;;;;;;;;;;0.40;99.90;;;;;;5049095;28;19923;-71
2021/01/26 08:02:03;;;;;;;;;;;0.40;99.90;;;;;;5121389;22;20059;-70
2021/01/26 08:04:35;;;;;;;;;;;0.50;99.90;;;;;;5049229;28;19960;-69
2021/01/26 08:07:10;;;;;;;;;;;0.50;99.90;;;;;;5048254;28;19921;-70
2021/01/26 08:09:41;;;;;;;;;;;0.50;99.90;;;;;;5048431;28;19921;-70
2021/01/26 08:12:27;;;;;;;;;;;0.60;99.90;;;;;;5049298;28;19913;-68
2021/01/26 08:14:54;;;;;;;;;;;0.60;99.90;;;;;;5044230;28;20340;-69
2021/01/26 08:17:33;;;;;;;;;;;0.60;99.90;;;;;;5046364;28;20362;-69
2021/01/26 08:20:01;;;;;;;;;;;0.60;99.90;;;;;;5048743;28;19967;-68
2021/01/26 08:22:29;;;;;;;;;;;0.50;99.90;;;;;;5048791;28;19920;-70
2021/01/26 08:25:18;;;;;;;;;;;0.50;99.90;;;;;;5044642;28;19913;-69
2021/01/26 08:27:43;;;;;;;;;;;0.40;99.90;;;;;;5048220;28;19916;-69
2021/01/26 08:30:10;;;;;;;;;;;0.50;99.90;;;;;;5048348;28;19967;-69
2021/01/26 08:32:35;;;;;;;;;;;0.60;99.90;;;;;;5047923;28;19917;-69
2021/01/26 08:35:10;;;;;;;;;;;0.60;99.90;;;;;;5048115;28;19950;-69
2021/01/26 08:37:41;;;;;;;;;;;0.60;99.90;;;;;;5048177;28;19971;-70
2021/01/26 08:40:27;;;;;;;;;;;0.70;99.90;;;;;;5048483;28;19943;-69
2021/01/26 08:43:03;;;;;;;;;;;0.80;99.90;;;;;;5036748;28;20362;-71
2021/01/26 08:45:29;;;;;;;;;;;0.80;99.90;;;;;;5044750;28;19916;-68
2021/01/26 08:47:58;;;;;;;;;;;0.80;99.90;;;;;;5047726;28;19917;-70
2021/01/26 08:50:26;;;;;;;;;;;0.80;99.90;;;;;;5048402;28;19920;-69
2021/01/26 08:52:53;;;;;;;;;;;0.80;99.90;;;;;;5048117;28;20456;-71
2021/01/26 08:55:51;;;;;;;;;;;0.90;99.90;;;;;;5075187;22;19925;-71
2021/01/26 08:58:35;;;;;;;;;;;1.00;99.90;;;;;;4997537;28;19928;-72
2021/01/26 09:01:00;;;;;;;;;;;1.50;99.90;;;;;;5039166;28;19960;-72
2021/01/26 09:03:33;;;;;;;;;;;1.70;99.90;;;;;;5038358;28;19949;-72
2021/01/26 09:06:00;;;;;;;;;;;1.50;99.90;;;;;;5042683;28;19913;-72
2021/01/26 09:08:40;;;;;;;;;;;1.40;99.90;;;;;;5039381;28;19913;-73
2021/01/26 09:11:08;;;;;;;;;;;1.40;99.90;;;;;;5038919;28;20011;-71
2021/01/26 09:13:34;;;;;;;;;;;1.40;99.90;;;;;;5039652;28;19924;-72
2021/01/26 09:16:10;;;;;;;;;;;1.30;99.90;;;;;;5036983;28;20549;-72
2021/01/26 09:18:36;;;;;;;;;;;1.30;99.90;;;;;;5037586;28;19968;-73
2021/01/26 09:21:04;;;;;;;;;;;1.20;99.90;;;;;;5038604;28;19951;-73
2021/01/26 09:23:30;;;;;;;;;;;1.20;99.90;;;;;;5044637;28;19919;-73
2021/01/26 09:25:56;;;;;;;;;;;1.30;99.90;;;;;;5043384;28;20300;-73
2021/01/26 09:28:22;;;;;;;;;;;1.40;99.90;;;;;;5046587;28;19932;-72
2021/01/26 09:30:55;;;;;;;;;;;1.40;99.90;;;;;;5046012;28;20068;-72
2021/01/26 09:33:23;;;;;;;;;;;1.40;99.90;;;;;;5045889;28;19925;-73
2021/01/26 09:35:51;;;;;;;;;;;1.50;99.90;;;;;;5037882;28;20043;-72
2021/01/26 09:38:19;;;;;;;;;;;1.60;99.90;;;;;;5047936;28;20333;-70
2021/01/26 09:40:53;;;;;;;;;;;1.60;99.90;;;;;;5046923;28;20217;-70
2021/01/26 09:43:20;;;;;;;;;;;1.80;99.90;;;;;;5047805;28;20051;-72
2021/01/26 09:45:57;;;;;;;;;;;2.00;99.90;;;;;;5046815;28;19932;-71
2021/01/26 09:48:28;;;;;;;;;;;2.10;99.90;;;;;;5047258;28;19912;-73
2021/01/26 09:51:00;;;;;;;;;;;2.30;99.90;;;;;;5046510;28;19912;-72
2021/01/26 09:53:25;;;;;;;;;;;2.40;99.90;;;;;;5047669;28;19950;-72
2021/01/26 09:55:52;;;;;;;;;;;2.30;99.90;;;;;;5046460;28;20002;-74
2021/01/26 09:58:19;;;;;;;;;;;2.20;99.90;;;;;;5046917;28;19964;-73
2021/01/26 10:00:44;;;;;;;;;;;2.20;99.90;;;;;;5046670;28;19924;-72
2021/01/26 10:03:10;;;;;;;;;;;2.10;99.90;;;;;;5048000;28;19913;-73
2021/01/26 10:05:35;;;;;;;;;;;2.00;99.90;;;;;;5047432;28;19925;-72
2021/01/26 10:08:04;;;;;;;;;;;2.00;99.90;;;;;;5047065;28;19995;-73
2021/01/26 10:10:30;;;;;;;;;;;2.00;99.90;;;;;;5046974;28;19924;-73
2021/01/26 10:12:55;;;;;;;;;;;1.90;99.90;;;;;;5046902;28;19939;-71
2021/01/26 10:15:23;;;;;;;;;;;1.90;99.90;;;;;;5045876;28;20301;-72
2021/01/26 10:17:53;;;;;;;;;;;1.90;99.90;;;;;;5044983;28;19959;-72
2021/01/26 10:20:35;;;;;;;;;;;2.00;99.90;;;;;;5047754;28;20389;-72
2021/01/26 10:23:09;;;;;;;;;;;2.20;99.90;;;;;;5047426;28;19982;-72
2021/01/26 10:25:35;;;;;;;;;;;2.40;99.90;;;;;;5045509;28;19919;-72
2021/01/26 10:28:20;;;;;;;;;;;2.50;99.90;;;;;;5046551;28;19959;-72
2021/01/26 10:30:46;;;;;;;;;;;2.60;99.90;;;;;;5045536;28;19920;-72
2021/01/26 10:33:30;;;;;;;;;;;2.80;99.90;;;;;;5047411;28;19919;-72
2021/01/26 10:36:15;;;;;;;;;;;2.90;99.90;;;;;;5046703;28;19912;-72
2021/01/26 10:38:44;;;;;;;;;;;3.30;99.90;;;;;;5039463;28;19924;-72
2021/01/26 10:41:12;;;;;;;;;;;3.70;99.90;;;;;;5046856;28;19913;-72
2021/01/26 10:43:38;;;;;;;;;;;4.00;99.90;;;;;;5049580;28;19936;-72
2021/01/26 10:46:04;;;;;;;;;;;4.40;99.90;;;;;;5050116;28;19920;-72
2021/01/26 10:48:37;;;;;;;;;;;4.40;99.90;;;;;;5051070;28;19916;-72
2021/01/26 10:51:08;;;;;;;;;;;4.70;99.90;;;;;;5050292;28;19932;-73
2021/01/26 10:53:38;;;;;;;;;;;5.00;99.90;;;;;;5052064;28;19913;-73
2021/01/26 10:56:04;;;;;;;;;;;5.20;99.90;;;;;;5051747;28;19920;-74
2021/01/26 10:58:30;;;;;;;;;;;5.30;99.90;;;;;;5050709;28;19916;-73
2021/01/26 11:00:55;;;;;;;;;;;5.20;99.90;;;;;;5050221;28;19923;-73
2021/01/26 11:03:21;;;;;;;;;;;4.90;99.90;;;;;;5052072;28;19917;-74
2021/01/26 11:05:47;;;;;;;;;;;4.70;99.90;;;;;;5050147;28;19921;-73
2021/01/26 11:08:12;;;;;;;;;;;4.60;99.90;;;;;;5050424;28;19912;-71
2021/01/26 11:10:38;;;;;;;;;;;4.40;99.90;;;;;;5050105;28;19986;-73
2021/01/26 11:13:03;;;;;;;;;;;4.30;99.90;;;;;;5050547;28;19928;-74
2021/01/26 11:15:29;;;;;;;;;;;4.20;99.90;;;;;;5050253;28;20550;-75
2021/01/26 11:17:54;;;;;;;;;;;4.10;99.90;;;;;;5050415;28;20269;-73
2021/01/26 11:20:20;;;;;;;;;;;4.00;99.90;;;;;;5049599;28;19945;-72
2021/01/26 11:22:46;;;;;;;;;;;4.00;99.90;;;;;;5050611;28;20004;-75
2021/01/26 11:25:11;;;;;;;;;;;4.00;99.90;;;;;;5050440;28;19942;-72
2021/01/26 11:27:37;;;;;;;;;;;3.90;99.90;;;;;;5048909;28;19917;-72
2021/01/26 11:30:04;;;;;;;;;;;3.80;99.90;;;;;;5050162;28;19912;-74
2021/01/26 11:32:29;;;;;;;;;;;3.70;99.90;;;;;;5049714;28;19919;-74
2021/01/26 11:34:55;;;;;;;;;;;3.60;99.90;;;;;;5051229;28;19912;-73
2021/01/26 11:37:20;;;;;;;;;;;3.60;99.90;;;;;;5050379;28;19920;-72
2021/01/26 11:39:46;;;;;;;;;;;3.60;99.90;;;;;;5050340;28;20257;-73
2021/01/26 11:42:11;;;;;;;;;;;3.60;99.90;;;;;;5051073;28;19920;-73
2021/01/26 11:44:37;;;;;;;;;;;3.60;99.90;;;;;;5049600;28;19967;-73
2021/01/26 11:47:03;;;;;;;;;;;3.60;99.90;;;;;;5048736;28;19919;-74
2021/01/26 11:49:28;;;;;;;;;;;3.80;99.90;;;;;;5050536;28;19913;-74
2021/01/26 11:51:54;;;;;;;;;;;3.80;99.90;;;;;;5051045;28;19930;-73
2021/01/26 11:54:19;;;;;;;;;;;3.80;99.90;;;;;;5049896;28;20507;-72
2021/01/26 11:56:45;;;;;;;;;;;3.80;99.90;;;;;;5048569;28;19917;-72
2021/01/26 11:59:10;;;;;;;;;;;3.80;99.90;;;;;;5049808;28;19916;-73
2021/01/26 12:01:36;;;;;;;;;;;3.90;99.90;;;;;;5048691;28;20358;-73
2021/01/26 12:04:01;;;;;;;;;;;3.90;99.90;;;;;;5039401;28;19933;-73
2021/01/26 12:06:27;;;;;;;;;;;3.90;99.90;;;;;;5049283;28;19917;-73
2021/01/26 12:08:52;;;;;;;;;;;3.90;99.90;;;;;;5048526;28;20223;-73
2021/01/26 12:11:18;;;;;;;;;;;3.90;99.90;;;;;;5049377;28;19920;-74
2021/01/26 12:13:43;;;;;;;;;;;3.90;99.90;;;;;;5049213;28;20016;-73
2021/01/26 12:16:10;;;;;;;;;;;3.80;99.90;;;;;;5048762;28;19957;-73
2021/01/26 12:18:35;;;;;;;;;;;3.80;99.90;;;;;;5050042;28;19928;-73
2021/01/26 12:21:01;;;;;;;;;;;3.80;99.90;;;;;;5041539;28;19917;-73
2021/01/26 12:23:26;;;;;;;;;;;3.90;99.90;;;;;;5049581;28;19924;-73
2021/01/26 12:25:57;;;;;;;;;;;4.00;99.90;;;;;;5046243;28;20364;-74
2021/01/26 12:28:22;;;;;;;;;;;4.00;99.90;;;;;;5048087;28;19917;-74
2021/01/26 12:30:48;;;;;;;;;;;4.20;99.90;;;;;;5047483;28;19920;-75
2021/01/26 12:33:13;;;;;;;;;;;4.30;99.90;;;;;;5048711;28;19920;-73
2021/01/26 12:35:39;;;;;;;;;;;4.40;99.90;;;;;;5047837;28;20354;-72
2021/01/26 12:38:05;;;;;;;;;;;4.50;99.90;;;;;;5048372;28;19939;-73
2021/01/26 12:40:31;;;;;;;;;;;4.50;99.90;;;;;;5049063;28;19999;-73
2021/01/26 12:42:56;;;;;;;;;;;4.60;99.90;;;;;;5048079;28;20066;-72
2021/01/26 12:45:25;;;;;;;;;;;4.70;99.90;;;;;;5048596;28;19966;-73
2021/01/26 12:47:50;;;;;;;;;;;4.70;99.90;;;;;;5046310;28;20049;-71
2021/01/26 12:50:18;;;;;;;;;;;4.70;99.90;;;;;;5048440;28;19960;-71
2021/01/26 12:52:43;;;;;;;;;;;4.70;99.90;;;;;;5048391;28;19942;-71
2021/01/26 12:55:09;;;;;;;;;;;4.70;99.90;;;;;;5047972;28;19996;-73
2021/01/26 12:57:35;;;;;;;;;;;4.70;99.90;;;;;;5047521;28;19947;-75
2021/01/26 13:00:01;;;;;;;;;;;4.90;99.90;;;;;;5048699;28;20593;-72
2021/01/26 13:02:26;;;;;;;;;;;5.10;99.90;;;;;;5048539;28;19939;-74
2021/01/26 13:04:52;;;;;;;;;;;5.30;99.90;;;;;;5048056;28;19917;-72
2021/01/26 13:07:19;;;;;;;;;;;5.50;99.90;;;;;;5048150;28;19920;-72
2021/01/26 13:09:45;;;;;;;;;;;5.70;99.90;;;;;;5064113;28;19974;-73
2021/01/26 13:12:11;;;;;;;;;;;6.00;99.90;;;;;;5047913;28;19928;-72
2021/01/26 13:14:37;;;;;;;;;;;6.00;99.90;;;;;;5047955;28;20398;-73
2021/01/26 13:17:03;;;;;;;;;;;6.00;99.90;;;;;;5047733;28;20306;-73
2021/01/26 13:19:28;;;;;;;;;;;6.00;99.90;;;;;;5048748;28;20001;-75
2021/01/26 13:21:55;;;;;;;;;;;6.00;99.90;;;;;;5049044;28;20338;-74
2021/01/26 13:24:20;;;;;;;;;;;6.00;99.90;;;;;;5048501;28;19956;-73
2021/01/26 13:26:46;;;;;;;;;;;5.90;99.90;;;;;;5047906;28;19967;-74
2021/01/26 13:29:11;;;;;;;;;;;5.90;99.90;;;;;;5047825;28;20004;-73
2021/01/26 13:31:37;;;;;;;;;;;6.00;99.90;;;;;;5048232;28;19912;-72
2021/01/26 13:34:03;;;;;;;;;;;6.00;99.90;;;;;;5048932;28;19956;-74
2021/01/26 13:36:28;;;;;;;;;;;5.90;99.90;;;;;;5049218;28;20345;-73
2021/01/26 13:38:54;;;;;;;;;;;5.80;99.90;;;;;;5047260;28;19971;-74
2021/01/26 13:41:19;;;;;;;;;;;5.90;99.90;;;;;;5045573;28;19913;-72
2021/01/26 13:43:45;;;;;;;;;;;5.90;99.90;;;;;;5048421;28;19912;-72
2021/01/26 13:46:10;;;;;;;;;;;5.60;99.90;;;;;;5041035;28;19931;-71
2021/01/26 13:48:36;;;;;;;;;;;5.40;99.90;;;;;;5040319;28;19940;-74
2021/01/26 13:51:01;;;;;;;;;;;5.20;99.90;;;;;;5048023;28;19913;-73
2021/01/26 13:53:27;;;;;;;;;;;5.10;99.90;;;;;;5047873;28;19913;-73
2021/01/26 13:55:53;;;;;;;;;;;5.00;99.90;;;;;;5047057;28;19921;-73
2021/01/26 13:58:18;;;;;;;;;;;4.90;99.90;;;;;;5045956;28;19917;-72
2021/01/26 14:00:44;;;;;;;;;;;5.10;99.90;;;;;;5046712;28;19982;-73
2021/01/26 14:03:09;;;;;;;;;;;5.30;99.90;;;;;;5047441;28;20039;-73
2021/01/26 14:05:35;;;;;;;;;;;5.00;99.90;;;;;;5047816;28;19968;-73
2021/01/26 14:08:01;;;;;;;;;;;5.00;99.90;;;;;;5047450;28;19920;-72
2021/01/26 14:10:29;;;;;;;;;;;4.90;99.90;;;;;;5047693;28;20377;-73
2021/01/26 14:12:54;;;;;;;;;;;4.90;99.90;;;;;;5044115;28;19999;-73
2021/01/26 14:15:20;;;;;;;;;;;4.90;99.90;;;;;;5037659;28;20024;-71
2021/01/26 14:17:45;;;;;;;;;;;4.90;99.90;;;;;;5039111;28;19968;-71
2021/01/26 14:20:12;;;;;;;;;;;4.80;99.90;;;;;;5044617;28;19920;-73
2021/01/26 14:22:38;;;;;;;;;;;4.60;99.90;;;;;;5045568;28;20310;-72
2021/01/26 14:25:04;;;;;;;;;;;4.60;99.90;;;;;;5043800;28;20003;-73
2021/01/26 14:27:30;;;;;;;;;;;4.60;99.90;;;;;;5053198;28;19963;-73
2021/01/26 14:29:55;;;;;;;;;;;4.60;99.90;;;;;;5053575;28;19948;-72
2021/01/26 14:32:21;;;;;;;;;;;4.50;99.90;;;;;;5053386;28;19919;-72
2021/01/26 14:34:46;;;;;;;;;;;4.50;99.90;;;;;;5044498;28;19913;-73
2021/01/26 14:37:12;;;;;;;;;;;4.40;99.90;;;;;;5042071;28;20039;-73